createdAt,value
2018-04-14T00:00:30.311Z,100468
2018-04-14T00:02:58.518Z,100479
2018-04-14T00:05:26.711Z,100477
2018-04-14T00:07:55.764Z,100471
2018-04-14T00:10:24.682Z,100474
2018-04-14T00:12:52.917Z,100478
2018-04-14T00:15:21.156Z,100476
2018-04-14T00:17:49.390Z,100480
2018-04-14T00:20:17.561Z,100478
2018-04-14T00:22:46.492Z,100476
2018-04-14T00:25:15.538Z,100474
2018-04-14T00:27:44.470Z,100471
2018-04-14T00:30:12.592Z,100479
2018-04-14T00:32:41.517Z,100475
2018-04-14T00:35:09.740Z,100471
2018-04-14T00:37:38.130Z,100475
2018-04-14T00:40:07.134Z,100476
2018-04-14T00:42:36.021Z,100476
2018-04-14T00:45:04.932Z,100481
2018-04-14T00:47:33.076Z,100486
2018-04-14T00:50:01.339Z,100489
2018-04-14T00:52:29.573Z,100484
2018-04-14T00:54:57.737Z,100491
2018-04-14T00:57:25.886Z,100479
2018-04-14T00:59:54.857Z,100483
2018-04-14T01:02:23.869Z,100494
2018-04-14T01:04:52.794Z,100490
2018-04-14T01:07:20.919Z,100495
2018-04-14T01:09:49.090Z,100486
2018-04-14T01:12:18.010Z,100487
2018-04-14T01:14:46.157Z,100488
2018-04-14T01:17:15.064Z,100492
2018-04-14T01:19:44.002Z,100502
2018-04-14T01:22:12.154Z,100500
2018-04-14T01:24:40.374Z,100498
2018-04-14T01:27:08.521Z,100500
2018-04-14T01:29:36.674Z,100508
2018-04-14T01:32:04.828Z,100492
2018-04-14T01:34:32.974Z,100510
2018-04-14T01:37:01.894Z,100510
2018-04-14T01:39:30.094Z,100508
2018-04-14T01:41:58.299Z,100510
2018-04-14T01:44:26.428Z,100508
2018-04-14T01:46:54.629Z,100510
2018-04-14T01:49:22.777Z,100504
2018-04-14T01:51:50.965Z,100502
2018-04-14T01:54:19.119Z,100509
2018-04-14T01:56:47.273Z,100497
2018-04-14T01:59:15.397Z,100508
2018-04-14T02:01:43.558Z,100501
2018-04-14T02:04:11.676Z,100503
2018-04-14T02:06:40.610Z,100506
2018-04-14T02:09:08.829Z,100508
2018-04-14T02:11:37.775Z,100512
2018-04-14T02:14:05.913Z,100504
2018-04-14T02:16:34.037Z,100511
2018-04-14T02:19:02.169Z,100503
2018-04-14T02:21:30.289Z,100500
2018-04-14T02:23:58.424Z,100503
2018-04-14T02:26:26.712Z,100507
2018-04-14T02:28:54.838Z,100513
2018-04-14T02:31:23.774Z,100513
2018-04-14T02:33:52.109Z,100512
2018-04-14T02:36:20.237Z,100512
2018-04-14T02:38:48.442Z,100512
2018-04-14T02:41:17.371Z,100516
2018-04-14T02:43:45.550Z,100516
2018-04-14T02:46:13.704Z,100529
2018-04-14T02:48:41.833Z,100526
2018-04-14T02:51:10.007Z,100523
2018-04-14T02:53:38.128Z,100524
2018-04-14T02:56:06.406Z,100524
2018-04-14T02:58:34.582Z,100532
2018-04-14T03:01:02.748Z,100530
2018-04-14T03:03:30.929Z,100530
2018-04-14T03:05:59.198Z,100538
2018-04-14T03:08:27.321Z,100534
2018-04-14T03:10:55.470Z,100546
2018-04-14T03:13:23.605Z,100544
2018-04-14T03:15:51.730Z,100555
2018-04-14T03:18:19.854Z,100555
2018-04-14T03:20:48.003Z,100559
2018-04-14T03:23:16.967Z,100555
2018-04-14T03:25:45.089Z,100558
2018-04-14T03:28:13.208Z,100556
2018-04-14T03:30:41.351Z,100556
2018-04-14T03:33:09.479Z,100570
2018-04-14T03:35:38.390Z,100567
2018-04-14T03:38:06.563Z,100562
2018-04-14T03:40:34.710Z,100563
2018-04-14T03:43:03.766Z,100574
2018-04-14T03:45:31.922Z,100577
2018-04-14T03:48:00.080Z,100586
2018-04-14T03:50:28.380Z,100592
2018-04-14T03:52:56.597Z,100582
2018-04-14T03:55:25.505Z,100589
2018-04-14T03:57:53.681Z,100601
2018-04-14T04:00:22.021Z,100603
2018-04-14T04:02:50.170Z,100608
2018-04-14T04:05:18.424Z,100621
2018-04-14T04:07:46.598Z,100624
2018-04-14T04:10:14.856Z,100630
2018-04-14T04:12:43.107Z,100634
2018-04-14T04:15:12.026Z,100626
2018-04-14T04:17:41.184Z,100639
2018-04-14T04:20:22.231Z,100640
2018-04-14T04:26:00.309Z,100645
2018-04-14T04:28:29.241Z,100663
2018-04-14T04:30:57.526Z,100657
2018-04-14T04:33:25.798Z,100666
2018-04-14T04:35:54.016Z,100662
2018-04-14T04:38:23.065Z,100672
2018-04-14T04:40:51.195Z,100673
2018-04-14T04:43:19.439Z,100706
2018-04-14T04:45:48.388Z,100694
2018-04-14T04:48:16.546Z,100704
2018-04-14T04:50:44.766Z,100704
2018-04-14T04:53:12.943Z,100716
2018-04-14T04:55:41.226Z,100722
2018-04-14T04:58:10.141Z,100720
2018-04-14T05:00:38.493Z,100724
2018-04-14T05:03:07.417Z,100733
2018-04-14T05:05:35.573Z,100742
2018-04-14T05:08:04.465Z,100756
2018-04-14T05:10:33.390Z,100745
2018-04-14T05:13:01.609Z,100759
2018-04-14T05:15:29.762Z,100762
2018-04-14T05:17:57.986Z,100758
2018-04-14T05:20:26.190Z,100768
2018-04-14T05:22:54.317Z,100771
2018-04-14T05:25:23.235Z,100797
2018-04-14T05:27:51.470Z,100787
2018-04-14T05:30:20.427Z,100793
2018-04-14T05:32:48.578Z,100787
2018-04-14T05:35:16.734Z,100810
2018-04-14T05:37:45.726Z,100805
2018-04-14T05:40:13.969Z,100802
2018-04-14T05:42:42.156Z,100814
2018-04-14T05:45:11.092Z,100822
2018-04-14T05:47:39.233Z,100831
2018-04-14T05:50:07.368Z,100829
2018-04-14T05:52:35.528Z,100837
2018-04-14T05:55:03.785Z,100844
2018-04-14T05:57:31.993Z,100838
2018-04-14T06:00:00.218Z,100852
2018-04-14T06:02:28.426Z,100852
2018-04-14T06:04:56.574Z,100854
2018-04-14T06:07:24.752Z,100871
2018-04-14T06:09:52.902Z,100862
2018-04-14T06:12:21.125Z,100869
2018-04-14T06:14:49.290Z,100874
2018-04-14T06:17:17.447Z,100874
2018-04-14T06:19:45.608Z,100873
2018-04-14T06:22:13.780Z,100881
2018-04-14T06:24:42.658Z,100871
2018-04-14T06:27:10.832Z,100885
2018-04-14T06:29:39.022Z,100884
2018-04-14T06:32:07.148Z,100888
2018-04-14T06:34:36.045Z,100896
2018-04-14T06:37:04.952Z,100908
2018-04-14T06:39:33.103Z,100905
2018-04-14T06:42:02.032Z,100907
2018-04-14T06:44:30.178Z,100913
2018-04-14T06:46:58.334Z,100920
2018-04-14T06:49:27.248Z,100917
2018-04-14T06:51:55.368Z,100938
2018-04-14T06:54:23.510Z,100938
2018-04-14T06:56:53.253Z,100938
2018-04-14T06:59:21.388Z,100955
2018-04-14T07:01:52.281Z,100945
2018-04-14T07:04:21.205Z,100955
2018-04-14T07:06:49.374Z,100963
2018-04-14T07:09:17.520Z,100953
2018-04-14T07:11:47.225Z,100962
2018-04-14T07:14:15.344Z,100977
2018-04-14T07:16:43.473Z,100966
2018-04-14T07:19:12.426Z,100978
2018-04-14T07:21:40.641Z,100989
2018-04-14T07:24:09.579Z,100976
2018-04-14T07:26:37.737Z,100981
2018-04-14T07:29:05.894Z,100990
2018-04-14T07:31:34.027Z,100992
2018-04-14T07:34:02.210Z,100988
2018-04-14T07:36:30.353Z,100988
2018-04-14T07:38:58.490Z,101031
2018-04-14T07:41:26.855Z,101011
2018-04-14T07:43:55.035Z,101007
2018-04-14T07:46:23.214Z,101015
2018-04-14T07:48:51.391Z,101001
2018-04-14T07:51:19.595Z,101016
2018-04-14T07:53:47.761Z,101010
2018-04-14T07:56:15.888Z,101024
2018-04-14T07:58:44.822Z,101012
2018-04-14T08:01:13.021Z,101021
2018-04-14T08:03:41.182Z,101020
2018-04-14T08:06:09.377Z,101036
2018-04-14T08:08:38.308Z,101039
2018-04-14T08:11:06.485Z,101040
2018-04-14T08:13:34.673Z,101046
2018-04-14T08:16:02.881Z,101049
2018-04-14T08:18:31.092Z,101059
2018-04-14T08:20:59.284Z,101055
2018-04-14T08:23:28.077Z,101056
2018-04-14T08:25:56.505Z,101057
2018-04-14T08:28:25.538Z,101053
2018-04-14T08:30:53.830Z,101063
2018-04-14T08:33:22.131Z,101064
2018-04-14T08:35:50.625Z,101057
2018-04-14T08:38:19.151Z,101052
2018-04-14T08:40:47.492Z,101058
2018-04-14T08:43:16.536Z,101068
2018-04-14T08:45:45.090Z,101071
2018-04-14T08:48:13.628Z,101065
2018-04-14T08:50:42.769Z,101069
2018-04-14T08:53:11.149Z,101070
2018-04-14T08:55:39.669Z,101071
2018-04-14T08:58:08.314Z,101074
2018-04-14T09:00:36.844Z,101076
2018-04-14T09:03:05.111Z,101078
2018-04-14T09:05:33.592Z,101086
2018-04-14T09:08:02.668Z,101073
2018-04-14T09:10:30.851Z,101074
2018-04-14T09:12:59.425Z,101084
2018-04-14T09:15:27.687Z,101081
2018-04-14T09:17:56.253Z,101092
2018-04-14T09:20:24.650Z,101094
2018-04-14T09:22:52.994Z,101088
2018-04-14T09:25:21.214Z,101107
2018-04-14T09:27:49.503Z,101104
2018-04-14T09:30:18.172Z,101104
2018-04-14T09:32:47.392Z,101095
2018-04-14T09:35:15.649Z,101095
2018-04-14T09:37:44.030Z,101100
2018-04-14T09:40:12.291Z,101106
2018-04-14T09:42:40.566Z,101100
2018-04-14T09:45:09.113Z,101104
2018-04-14T09:47:37.655Z,101131
2018-04-14T09:50:07.336Z,101129
2018-04-14T09:52:35.630Z,101119
2018-04-14T09:55:04.292Z,101127
2018-04-14T09:57:32.693Z,101133
2018-04-14T10:00:01.255Z,101127
2018-04-14T10:05:27.612Z,101133
2018-04-14T10:07:56.229Z,101133
2018-04-14T10:10:24.786Z,101124
2018-04-14T10:12:53.311Z,101135
2018-04-14T10:15:21.648Z,101127
2018-04-14T10:17:50.048Z,101134
2018-04-14T10:20:18.810Z,101130
2018-04-14T10:22:47.555Z,101138
2018-04-14T10:25:16.013Z,101140
2018-04-14T10:27:44.525Z,101131
2018-04-14T10:30:13.052Z,101144
2018-04-14T10:32:41.312Z,101133
2018-04-14T10:35:09.788Z,101143
2018-04-14T10:37:38.215Z,101134
2018-04-14T10:40:07.229Z,101137
2018-04-14T10:42:36.292Z,101140
2018-04-14T10:45:04.957Z,101146
2018-04-14T10:47:33.731Z,101148
2018-04-14T10:50:02.395Z,101144
2018-04-14T10:52:31.873Z,101136
2018-04-14T10:55:00.953Z,101137
2018-04-14T10:57:31.274Z,101146
2018-04-14T11:00:02.718Z,101137
2018-04-14T11:02:36.397Z,101142
2018-04-14T11:06:09.608Z,101149
2018-04-14T11:08:38.521Z,101146
2018-04-14T11:11:06.677Z,101140
2018-04-14T11:13:35.596Z,101142
2018-04-14T11:16:03.721Z,101136
2018-04-14T11:18:31.837Z,101146
2018-04-14T11:20:59.977Z,101143
2018-04-14T11:23:28.962Z,101136
2018-04-14T11:25:57.904Z,101147
2018-04-14T11:28:26.020Z,101145
2018-04-14T11:30:54.164Z,101140
2018-04-14T11:33:22.301Z,101136
2018-04-14T11:35:51.226Z,101124
2018-04-14T11:38:19.466Z,101138
2018-04-14T11:40:47.589Z,101141
2018-04-14T11:43:15.917Z,101139
2018-04-14T11:45:44.065Z,101145
2018-04-14T11:48:12.984Z,101142
2018-04-14T11:50:41.138Z,101150
2018-04-14T11:53:09.268Z,101143
2018-04-14T11:55:37.465Z,101136
2018-04-14T11:58:06.382Z,101152
2018-04-14T12:00:34.526Z,101150
2018-04-14T12:03:02.701Z,101144
2018-04-14T12:05:31.618Z,101142
2018-04-14T12:07:59.739Z,101134
2018-04-14T12:10:27.936Z,101117
2018-04-14T12:12:56.827Z,101120
2018-04-14T12:15:24.945Z,101124
2018-04-14T12:17:53.084Z,101126
2018-04-14T12:20:22.006Z,101132
2018-04-14T12:22:50.189Z,101136
2018-04-14T12:25:18.341Z,101142
2018-04-14T12:27:46.528Z,101161
2018-04-14T12:30:14.721Z,101165
2018-04-14T12:32:42.866Z,101180
2018-04-14T12:35:11.004Z,101208
2018-04-14T12:37:39.925Z,101198
2018-04-14T12:40:08.103Z,101199
2018-04-14T12:42:36.282Z,101219
2018-04-14T12:45:04.506Z,101224
2018-04-14T12:47:33.408Z,101217
2018-04-14T12:50:02.323Z,101227
2018-04-14T12:52:30.485Z,101233
2018-04-14T12:54:58.670Z,101240
2018-04-14T12:57:26.885Z,101224
2018-04-14T12:59:55.057Z,101213
2018-04-14T13:02:23.236Z,101209
2018-04-14T13:04:51.364Z,101224
2018-04-14T13:07:19.548Z,101223
2018-04-14T13:09:47.688Z,101226
2018-04-14T13:12:16.627Z,101219
2018-04-14T13:14:44.857Z,101218
2018-04-14T13:17:13.078Z,101215
2018-04-14T13:19:41.208Z,101218
2018-04-14T13:22:09.389Z,101216
2018-04-14T13:24:37.581Z,101219
2018-04-14T13:27:06.719Z,101211
2018-04-14T13:29:34.849Z,101226
2018-04-14T13:32:03.061Z,101219
2018-04-14T13:34:31.217Z,101225
2018-04-14T13:36:59.370Z,101214
2018-04-14T13:39:27.509Z,101218
2018-04-14T13:41:55.725Z,101208
2018-04-14T13:44:23.897Z,101204
2018-04-14T13:46:52.066Z,101207
2018-04-14T13:49:20.284Z,101203
2018-04-14T13:51:49.239Z,101203
2018-04-14T13:54:17.578Z,101197
2018-04-14T13:56:45.771Z,101194
2018-04-14T13:59:13.985Z,101199
2018-04-14T14:01:42.184Z,101203
2018-04-14T14:04:10.349Z,101203
2018-04-14T14:06:39.346Z,101203
2018-04-14T14:09:08.462Z,101199
2018-04-14T14:11:36.701Z,101207
2018-04-14T14:14:05.709Z,101201
2018-04-14T14:16:33.880Z,101205
2018-04-14T14:19:02.808Z,101207
2018-04-14T14:21:30.980Z,101207
2018-04-14T14:23:59.226Z,101209
2018-04-14T14:26:28.171Z,101209
2018-04-14T14:28:56.363Z,101204
2018-04-14T14:31:24.557Z,101205
2018-04-14T14:33:52.782Z,101204
2018-04-14T14:36:20.949Z,101210
2018-04-14T14:38:49.166Z,101213
2018-04-14T14:41:18.179Z,101204
2018-04-14T14:43:46.329Z,101210
2018-04-14T14:46:15.285Z,101198
2018-04-14T14:48:43.501Z,101200
2018-04-14T14:51:11.728Z,101202
2018-04-14T14:53:39.985Z,101221
2018-04-14T14:56:08.188Z,101225
2018-04-14T14:58:36.365Z,101217
2018-04-14T15:04:02.201Z,101203
2018-04-14T15:06:30.567Z,101201
2018-04-14T15:11:56.427Z,101207
2018-04-14T15:14:25.649Z,101203
2018-04-14T15:16:53.802Z,101209
2018-04-14T15:19:23.095Z,101204
2018-04-14T15:21:51.568Z,101207
2018-04-14T15:24:20.884Z,101208
2018-04-14T15:26:49.944Z,101210
2018-04-14T15:29:18.808Z,101217
2018-04-14T15:31:47.783Z,101221
2018-04-14T15:34:16.129Z,101221
2018-04-14T15:36:45.706Z,101221
2018-04-14T15:39:15.056Z,101225
2018-04-14T15:41:45.369Z,101231
2018-04-14T15:44:16.494Z,101234
2018-04-14T15:46:45.792Z,101243
2018-04-14T15:49:14.682Z,101241
2018-04-14T15:51:43.566Z,101247
2018-04-14T15:54:12.866Z,101244
2018-04-14T15:56:43.967Z,101247
2018-04-14T15:59:13.367Z,101242
2018-04-14T16:01:52.545Z,101244
2018-04-14T16:04:21.794Z,101247
2018-04-14T16:06:52.192Z,101245
2018-04-14T16:09:23.283Z,101250
2018-04-14T16:11:54.594Z,101242
2018-04-14T16:14:27.166Z,101240
2018-04-14T16:16:55.611Z,101247
2018-04-14T16:19:25.213Z,101243
2018-04-14T16:21:55.824Z,101247
2018-04-14T16:24:30.190Z,101253
2018-04-14T16:32:55.860Z,101248
2018-04-14T16:35:24.000Z,101248
2018-04-14T16:37:52.913Z,101251
2018-04-14T16:40:21.062Z,101254
2018-04-14T16:42:49.973Z,101251
2018-04-14T16:45:18.166Z,101256
2018-04-14T16:47:46.331Z,101261
2018-04-14T16:50:14.485Z,101270
2018-04-14T16:52:42.652Z,101259
2018-04-14T16:55:11.533Z,101258
2018-04-14T16:57:40.424Z,101260
2018-04-14T17:00:09.324Z,101262
2018-04-14T17:02:38.237Z,101262
2018-04-14T17:05:06.353Z,101264
2018-04-14T17:07:34.468Z,101260
2018-04-14T17:10:02.636Z,101266
2018-04-14T17:12:30.756Z,101263
2018-04-14T17:14:58.923Z,101253
2018-04-14T17:17:27.078Z,101263
2018-04-14T17:19:55.205Z,101269
2018-04-14T17:22:24.121Z,101264
2018-04-14T17:24:52.240Z,101252
2018-04-14T17:27:20.362Z,101257
2018-04-14T17:29:48.496Z,101262
2018-04-14T17:32:16.651Z,101258
2018-04-14T17:34:44.826Z,101260
2018-04-14T17:37:12.973Z,101259
2018-04-14T17:39:41.093Z,101262
2018-04-14T17:42:09.266Z,101259
2018-04-14T17:44:37.422Z,101258
2018-04-14T17:47:05.582Z,101259
2018-04-14T17:49:33.753Z,101250
2018-04-14T17:52:01.969Z,101262
2018-04-14T17:54:30.861Z,101264
2018-04-14T17:56:59.745Z,101266
2018-04-14T17:59:28.646Z,101268
2018-04-14T18:01:57.558Z,101278
2018-04-14T18:04:25.710Z,101275
2018-04-14T18:06:54.592Z,101268
2018-04-14T18:09:23.501Z,101274
2018-04-14T18:11:51.646Z,101272
2018-04-14T18:14:20.571Z,101269
2018-04-14T18:16:48.717Z,101266
2018-04-14T18:19:17.650Z,101276
2018-04-14T18:21:45.804Z,101277
2018-04-14T18:24:13.922Z,101274
2018-04-14T18:26:42.038Z,101275
2018-04-14T18:29:10.965Z,101277
2018-04-14T18:31:39.092Z,101288
2018-04-14T18:34:07.993Z,101289
2018-04-14T18:36:36.108Z,101289
2018-04-14T18:39:04.246Z,101290
2018-04-14T18:41:32.413Z,101304
2018-04-14T18:44:01.215Z,101310
2018-04-14T18:46:29.356Z,101309
2018-04-14T18:48:58.253Z,101309
2018-04-14T18:51:27.291Z,101321
2018-04-14T18:53:55.414Z,101320
2018-04-14T18:56:24.369Z,101316
2018-04-14T18:58:52.509Z,101322
2018-04-14T19:01:20.660Z,101319
2018-04-14T19:03:48.808Z,101327
2018-04-14T19:06:17.732Z,101323
2018-04-14T19:08:45.903Z,101327
2018-04-14T19:11:14.024Z,101332
2018-04-14T19:13:42.197Z,101328
2018-04-14T19:16:10.413Z,101336
2018-04-14T19:18:38.626Z,101330
2018-04-14T19:21:06.802Z,101327
2018-04-14T19:23:35.018Z,101332
2018-04-14T19:26:03.929Z,101329
2018-04-14T19:28:32.075Z,101331
2018-04-14T19:31:00.992Z,101325
2018-04-14T19:33:29.138Z,101335
2018-04-14T19:35:58.066Z,101327
2018-04-14T19:38:26.235Z,101322
2018-04-14T19:40:54.377Z,101315
2018-04-14T19:43:23.334Z,101321
2018-04-14T19:45:51.448Z,101325
2018-04-14T19:48:19.635Z,101324
2018-04-14T19:50:47.827Z,101321
2018-04-14T19:53:16.002Z,101317
2018-04-14T19:55:44.129Z,101323
2018-04-14T19:58:13.012Z,101314
2018-04-14T20:00:41.181Z,101314
2018-04-14T20:03:09.300Z,101309
2018-04-14T20:05:37.443Z,101312
2018-04-14T20:08:06.383Z,101304
2018-04-14T20:10:34.509Z,101303
2018-04-14T20:13:03.463Z,101311
2018-04-14T20:15:31.600Z,101315
2018-04-14T20:17:59.745Z,101309
2018-04-14T20:20:27.894Z,101306
2018-04-14T20:22:56.032Z,101308
2018-04-14T20:25:24.152Z,101313
2018-04-14T20:27:53.086Z,101313
2018-04-14T20:30:21.257Z,101315
2018-04-14T20:32:49.384Z,101310
2018-04-14T20:35:18.317Z,101309
2018-04-14T20:37:46.445Z,101315
2018-04-14T20:40:15.385Z,101313
2018-04-14T20:42:43.532Z,101309
2018-04-14T20:45:11.677Z,101310
2018-04-14T20:47:40.611Z,101295
2018-04-14T20:50:08.752Z,101309
2018-04-14T20:52:37.690Z,101303
2018-04-14T20:55:05.850Z,101304
2018-04-14T20:57:34.026Z,101303
2018-04-14T21:00:02.153Z,101296
2018-04-14T21:02:31.076Z,101306
2018-04-14T21:04:59.193Z,101315
2018-04-14T21:07:27.342Z,101314
2018-04-14T21:09:55.526Z,101312
2018-04-14T21:12:23.681Z,101307
2018-04-14T21:14:51.837Z,101294
2018-04-14T21:17:19.985Z,101302
2018-04-14T21:19:48.927Z,101306
2018-04-14T21:22:17.097Z,101309
2018-04-14T21:24:45.278Z,101314
2018-04-14T21:27:13.429Z,101310
2018-04-14T21:29:41.606Z,101305
2018-04-14T21:32:09.782Z,101304
2018-04-14T21:34:37.916Z,101306
2018-04-14T21:37:06.824Z,101299
2018-04-14T21:39:34.940Z,101305
2018-04-14T21:42:03.073Z,101306
2018-04-14T21:44:31.209Z,101301
2018-04-14T21:47:00.154Z,101302
2018-04-14T21:49:28.329Z,101300
2018-04-14T21:51:56.487Z,101301
2018-04-14T21:54:24.665Z,101296
2018-04-14T21:56:52.789Z,101291
2018-04-14T21:59:21.700Z,101298
2018-04-14T22:01:49.887Z,101295
2018-04-14T22:04:18.031Z,101287
2018-04-14T22:06:46.924Z,101289
2018-04-14T22:09:16.066Z,101302
2018-04-14T22:11:44.205Z,101306
2018-04-14T22:14:24.315Z,101317
2018-04-14T22:16:52.436Z,101311
2018-04-14T22:19:20.609Z,101319
2018-04-14T22:21:48.762Z,101321
2018-04-14T22:24:17.683Z,101320
2018-04-14T22:26:45.797Z,101320
2018-04-14T22:29:13.937Z,101325
2018-04-14T22:31:42.052Z,101310
2018-04-14T22:34:10.182Z,101307
2018-04-14T22:36:38.322Z,101313
2018-04-14T22:39:06.472Z,101300
2018-04-14T22:41:35.439Z,101297
2018-04-14T22:44:03.587Z,101302
2018-04-14T22:46:31.751Z,101296
2018-04-14T22:48:59.957Z,101300
2018-04-14T22:51:28.085Z,101298
2018-04-14T22:53:56.206Z,101291
2018-04-14T22:56:24.358Z,101300
2018-04-14T22:58:52.537Z,101284
2018-04-14T23:01:20.691Z,101272
2018-04-14T23:03:48.846Z,101272
2018-04-14T23:06:17.029Z,101265
2018-04-14T23:08:45.156Z,101270
2018-04-14T23:11:13.297Z,101272
2018-04-14T23:13:41.479Z,101278
2018-04-14T23:16:09.642Z,101273
2018-04-14T23:18:37.798Z,101277
2018-04-14T23:21:05.953Z,101275
2018-04-14T23:23:34.082Z,101275
2018-04-14T23:26:02.214Z,101278
2018-04-14T23:28:30.397Z,101274
2018-04-14T23:30:58.525Z,101263
2018-04-14T23:33:27.817Z,101256
2018-04-14T23:35:56.726Z,101262
2018-04-14T23:38:24.906Z,101255
2018-04-14T23:40:53.042Z,101255
2018-04-14T23:43:21.188Z,101239
2018-04-14T23:45:49.312Z,101237
2018-04-14T23:48:17.541Z,101242
2018-04-14T23:50:45.664Z,101252
2018-04-14T23:53:13.818Z,101244
2018-04-14T23:55:42.736Z,101237
2018-04-14T23:58:10.861Z,101238
